Time;durP1;ratioP1;P1;durP2;ratioP2;P2;SDS_P1;SDS_P2;PMS_P1;PMS_P2;Temp;Humidity;BMP_temperature;BMP_pressure;BME280_temperature;BME280_humidity;BME280_pressure;Samples;Min_cycle;Max_cycle;Signal;HPM_P1;HPM_P2
2022/01/22 00:02:06;;;;;;;11.60;1.95;;;8.60;99.90;;;;;;5062129;28;20024;-71
2022/01/22 00:04:32;;;;;;;11.85;2.08;;;8.60;99.90;;;;;;5059011;28;20029;-72
2022/01/22 00:07:01;;;;;;;11.98;1.90;;;8.60;99.90;;;;;;5060306;28;20097;-69
2022/01/22 00:09:28;;;;;;;12.82;1.88;;;8.60;99.90;;;;;;5056728;28;20422;-73
2022/01/22 00:11:57;;;;;;;8.82;1.80;;;8.60;99.90;;;;;;5059747;28;20488;-74
2022/01/22 00:14:23;;;;;;;14.55;2.22;;;8.60;99.90;;;;;;5059212;28;20434;-72
2022/01/22 00:16:51;;;;;;;18.38;2.33;;;8.60;99.90;;;;;;5055486;28;20112;-73
2022/01/22 00:19:16;;;;;;;12.27;1.80;;;8.60;99.90;;;;;;5060636;28;20071;-72
2022/01/22 00:21:43;;;;;;;10.80;1.70;;;8.60;99.90;;;;;;5062201;28;20060;-70
2022/01/22 00:24:11;;;;;;;13.45;1.83;;;8.60;99.90;;;;;;5058558;28;20028;-74
2022/01/22 00:26:37;;;;;;;11.75;2.05;;;8.60;99.90;;;;;;5059952;28;20028;-70
2022/01/22 00:29:03;;;;;;;13.18;2.30;;;8.60;99.90;;;;;;5062006;28;20021;-71
2022/01/22 00:31:29;;;;;;;14.02;2.13;;;8.60;99.90;;;;;;5057815;28;20532;-72
2022/01/22 00:33:55;;;;;;;8.52;1.58;;;8.50;99.90;;;;;;5062236;28;20033;-73
2022/01/22 00:36:20;;;;;;;9.10;2.15;;;8.50;99.90;;;;;;5057109;28;20089;-74
2022/01/22 00:38:46;;;;;;;12.32;2.25;;;8.60;99.90;;;;;;5074790;28;20035;-69
2022/01/22 00:41:12;;;;;;;17.90;2.08;;;8.60;99.90;;;;;;5062583;28;20474;-72
2022/01/22 00:43:37;;;;;;;14.15;2.17;;;8.60;99.90;;;;;;5035214;28;20537;-71
2022/01/22 00:46:03;;;;;;;13.43;1.88;;;8.60;99.90;;;;;;5060045;28;20035;-71
2022/01/22 00:48:29;;;;;;;3.97;1.20;;;8.60;99.90;;;;;;5065432;28;20044;-71
2022/01/22 00:50:56;;;;;;;13.57;1.90;;;8.60;99.90;;;;;;5064061;28;20028;-72
2022/01/22 00:53:23;;;;;;;11.45;2.05;;;8.60;99.90;;;;;;5067862;28;20648;-71
2022/01/22 00:55:49;;;;;;;9.38;2.15;;;8.60;99.90;;;;;;5064909;28;20044;-74
2022/01/22 00:58:14;;;;;;;8.15;1.48;;;8.60;99.90;;;;;;5070807;28;20386;-71
2022/01/22 01:00:40;;;;;;;13.23;3.20;;;8.60;99.90;;;;;;5064458;28;20043;-73
2022/01/22 01:03:06;;;;;;;12.90;2.17;;;8.60;99.90;;;;;;5055547;28;20036;-70
2022/01/22 01:05:32;;;;;;;10.68;1.77;;;8.60;99.90;;;;;;5066667;28;20522;-71
2022/01/22 01:07:57;;;;;;;9.00;1.77;;;8.60;99.90;;;;;;5066702;28;20039;-71
2022/01/22 01:10:23;;;;;;;13.55;1.85;;;8.60;99.90;;;;;;5059273;28;20446;-70
2022/01/22 01:12:50;;;;;;;11.73;1.92;;;8.60;99.90;;;;;;5071962;28;20424;-71
2022/01/22 01:34:31;;;;;;;13.18;2.08;;;8.60;99.90;;;;;;5063327;28;20461;-71
2022/01/22 01:36:57;;;;;;;12.57;2.28;;;8.60;99.90;;;;;;5071130;28;20025;-70
2022/01/22 01:39:31;;;;;;;16.55;1.80;;;8.60;99.90;;;;;;5060782;28;20020;-71
2022/01/22 01:42:05;;;;;;;11.05;1.65;;;8.70;99.90;;;;;;5059067;28;20029;-72
2022/01/22 01:44:31;;;;;;;10.45;1.13;;;8.70;99.90;;;;;;5054970;28;20025;-71
2022/01/22 01:47:00;;;;;;;12.75;1.45;;;8.70;99.90;;;;;;5054465;28;20031;-71
2022/01/22 01:49:28;;;;;;;11.63;1.48;;;8.70;99.90;;;;;;5061682;28;20045;-71
2022/01/22 01:51:56;;;;;;;10.40;1.30;;;8.70;99.90;;;;;;5066883;28;20036;-71
2022/01/22 01:59:51;;;;;;;8.65;1.50;;;8.70;99.90;;;;;;5061383;28;20450;-71
2022/01/22 02:02:17;;;;;;;9.27;1.95;;;8.70;99.90;;;;;;5064913;28;20021;-72
2022/01/22 02:04:43;;;;;;;9.93;1.40;;;8.70;99.90;;;;;;5039716;28;20035;-71
2022/01/22 02:07:09;;;;;;;12.82;1.70;;;8.70;99.90;;;;;;5068882;28;20159;-71
2022/01/22 02:09:36;;;;;;;13.05;1.67;;;8.70;99.90;;;;;;5062588;28;20036;-71
2022/01/22 02:12:09;;;;;;;11.95;2.10;;;8.70;99.90;;;;;;5061464;28;20037;-71
2022/01/22 02:25:18;;;;;;;9.88;1.50;;;8.90;99.90;;;;;;5059355;28;20031;-71
2022/01/22 02:27:44;;;;;;;6.68;1.50;;;8.90;99.90;;;;;;5063695;28;20100;-71
2022/01/22 02:30:17;;;;;;;10.38;1.90;;;8.80;99.90;;;;;;5059496;28;20063;-71
2022/01/22 02:35:36;;;;;;;12.23;2.00;;;8.90;99.90;;;;;;5058279;28;20059;-70
2022/01/22 02:38:11;;;;;;;13.02;1.77;;;8.90;99.90;;;;;;5062619;28;20041;-71
2022/01/22 02:40:44;;;;;;;14.25;2.22;;;8.90;99.90;;;;;;5069735;28;20092;-71
2022/01/22 02:43:11;;;;;;;12.68;1.77;;;8.90;99.90;;;;;;5061099;28;20032;-71
2022/01/22 02:45:38;;;;;;;9.45;1.70;;;8.90;99.90;;;;;;5062392;28;20032;-71
2022/01/22 02:48:04;;;;;;;10.93;1.80;;;8.90;99.90;;;;;;5060306;28;20057;-71
2022/01/22 02:50:29;;;;;;;7.88;1.42;;;8.90;99.90;;;;;;5053800;28;20394;-71
2022/01/22 02:52:55;;;;;;;11.20;1.55;;;8.90;99.90;;;;;;5066421;28;20055;-71
2022/01/22 02:55:21;;;;;;;10.98;1.73;;;8.90;99.90;;;;;;5066264;28;20041;-71
2022/01/22 02:57:46;;;;;;;10.30;1.90;;;8.90;99.90;;;;;;5063257;28;20108;-71
2022/01/22 03:00:17;;;;;;;11.25;1.92;;;8.90;99.90;;;;;;5060058;28;20046;-71
2022/01/22 03:02:43;;;;;;;10.57;2.28;;;8.90;99.90;;;;;;5069327;28;20036;-71
2022/01/22 03:05:09;;;;;;;12.57;1.90;;;8.90;99.90;;;;;;5055211;28;20017;-71
2022/01/22 03:07:37;;;;;;;10.68;1.63;;;8.90;99.90;;;;;;5060144;28;20029;-71
2022/01/22 03:10:05;;;;;;;11.55;1.38;;;8.90;99.90;;;;;;5056557;28;20016;-71
2022/01/22 03:27:48;;;;;;;9.23;1.15;;;8.90;99.90;;;;;;5072536;28;20682;-71
2022/01/22 03:30:14;;;;;;;7.20;1.40;;;8.90;99.90;;;;;;5061070;28;20025;-71
2022/01/22 03:32:47;;;;;;;5.93;1.30;;;8.90;99.90;;;;;;5057809;28;20378;-70
2022/01/22 03:35:25;;;;;;;6.45;1.20;;;8.90;99.90;;;;;;5066726;28;20028;-71
2022/01/22 03:37:55;;;;;;;11.32;1.23;;;8.90;99.90;;;;;;5072037;28;20028;-71
2022/01/22 03:40:24;;;;;;;7.80;1.20;;;8.90;99.90;;;;;;5059225;28;20402;-71
2022/01/22 03:42:52;;;;;;;9.93;2.63;;;8.90;99.90;;;;;;5061546;28;20037;-71
2022/01/22 03:45:19;;;;;;;10.32;1.33;;;8.90;99.90;;;;;;5069055;28;20109;-71
2022/01/22 03:47:46;;;;;;;5.75;1.30;;;9.00;99.90;;;;;;5072489;28;20059;-75
2022/01/22 03:50:13;;;;;;;10.23;1.63;;;9.00;99.90;;;;;;5072587;28;20032;-71
2022/01/22 03:52:40;;;;;;;10.55;1.38;;;9.00;99.90;;;;;;5050301;28;20041;-75
2022/01/22 03:55:10;;;;;;;9.90;1.77;;;9.00;99.90;;;;;;5060661;28;20029;-73
2022/01/22 03:57:36;;;;;;;6.63;1.20;;;9.00;99.90;;;;;;5058852;28;20032;-75
2022/01/22 04:00:05;;;;;;;13.57;1.90;;;9.00;99.90;;;;;;5066962;28;20555;-70
2022/01/22 04:05:09;;;;;;;9.30;1.23;;;9.00;99.90;;;;;;5060426;28;20036;-71
2022/01/22 04:10:04;;;;;;;9.57;1.38;;;9.00;99.90;;;;;;5053127;28;20122;-71
2022/01/22 04:12:51;;;;;;;10.43;1.40;;;9.00;99.90;;;;;;5064299;28;20040;-71
2022/01/22 04:15:21;;;;;;;7.50;1.38;;;9.00;99.90;;;;;;5059693;28;20315;-71
2022/01/22 04:25:54;;;;;;;10.90;1.20;;;9.00;99.90;;;;;;5069098;28;20085;-71
2022/01/22 04:28:19;;;;;;;7.75;1.42;;;9.10;99.90;;;;;;5068475;28;20477;-71
2022/01/22 04:30:46;;;;;;;10.65;1.45;;;9.00;99.90;;;;;;5042365;28;20504;-70
2022/01/22 04:33:12;;;;;;;9.30;1.40;;;9.00;99.90;;;;;;5049775;28;20053;-71
2022/01/22 04:35:37;;;;;;;10.23;1.73;;;9.10;99.90;;;;;;5065769;28;20036;-71
2022/01/22 04:38:03;;;;;;;13.70;1.77;;;9.10;99.90;;;;;;5042363;28;20017;-71
2022/01/22 04:40:28;;;;;;;13.77;1.73;;;9.10;99.90;;;;;;5072052;28;20025;-71
2022/01/22 04:42:55;;;;;;;12.55;1.80;;;9.10;99.90;;;;;;5063010;28;20124;-71
2022/01/22 04:45:30;;;;;;;16.13;2.20;;;9.10;99.90;;;;;;5056314;28;20112;-71
2022/01/22 04:48:12;;;;;;;10.18;1.50;;;9.10;99.90;;;;;;5051919;28;20044;-71
2022/01/22 04:55:48;;;;;;;13.18;1.92;;;9.10;99.90;;;;;;5068735;28;20434;-71
2022/01/22 04:58:14;;;;;;;8.40;1.45;;;9.10;99.90;;;;;;5040681;28;20090;-71
2022/01/22 05:00:43;;;;;;;4.47;1.15;;;9.10;99.90;;;;;;5070287;28;20385;-71
2022/01/22 05:03:09;;;;;;;7.38;1.58;;;9.10;99.90;;;;;;5072419;28;20165;-71
2022/01/22 05:05:34;;;;;;;9.18;1.50;;;9.00;99.90;;;;;;5063613;28;20040;-72
2022/01/22 05:08:00;;;;;;;9.38;1.52;;;9.00;99.90;;;;;;5066252;28;20036;-70
2022/01/22 05:10:27;;;;;;;12.13;2.30;;;9.10;99.90;;;;;;5071633;28;20046;-71
2022/01/22 05:12:53;;;;;;;9.85;1.35;;;9.00;99.90;;;;;;5060058;28;20100;-71
2022/01/22 05:15:20;;;;;;;13.05;1.90;;;9.00;99.90;;;;;;5047930;28;20382;-71
2022/01/22 05:17:47;;;;;;;12.13;1.30;;;9.00;99.90;;;;;;5067089;28;20025;-71
2022/01/22 05:20:29;;;;;;;11.65;2.22;;;9.10;99.90;;;;;;5057453;28;20029;-71
2022/01/22 05:23:11;;;;;;;8.05;0.93;;;9.10;99.90;;;;;;5067720;28;20054;-71
2022/01/22 05:25:41;;;;;;;8.80;1.58;;;9.10;99.90;;;;;;5066755;28;20024;-71
2022/01/22 05:38:32;;;;;;;13.27;1.38;;;9.10;99.90;;;;;;5071169;28;20106;-71
2022/01/22 05:40:57;;;;;;;10.10;1.48;;;9.20;99.90;;;;;;5042971;28;20036;-71
2022/01/22 05:43:23;;;;;;;16.73;1.80;;;9.20;99.90;;;;;;5065361;28;20102;-71
2022/01/22 05:45:48;;;;;;;7.97;1.58;;;9.20;99.90;;;;;;5061349;28;20049;-71
2022/01/22 05:48:14;;;;;;;12.57;1.67;;;9.20;99.90;;;;;;5054069;28;20098;-72
2022/01/22 05:50:59;;;;;;;6.60;1.58;;;9.20;99.90;;;;;;5058151;28;20385;-71
2022/01/22 06:01:08;;;;;;;18.48;2.40;;;9.20;99.90;;;;;;5065875;28;20509;-71
2022/01/22 06:03:33;;;;;;;10.75;1.92;;;9.20;99.90;;;;;;5063072;28;20032;-71
2022/01/22 06:06:00;;;;;;;15.30;2.00;;;9.20;99.90;;;;;;5036630;28;20580;-71
2022/01/22 06:08:33;;;;;;;5.80;1.73;;;9.20;99.90;;;;;;5070849;28;20028;-71
2022/01/22 06:11:06;;;;;;;17.38;2.22;;;9.20;99.90;;;;;;5063688;28;20047;-70
2022/01/22 06:13:43;;;;;;;13.00;2.00;;;9.20;99.90;;;;;;5063696;28;20032;-71
2022/01/22 06:16:13;;;;;;;12.82;2.35;;;9.10;99.90;;;;;;5070448;28;20028;-71
2022/01/22 06:18:39;;;;;;;10.75;2.03;;;9.10;99.90;;;;;;5064011;28;20455;-71
2022/01/22 06:21:06;;;;;;;13.25;2.10;;;9.10;99.90;;;;;;5066950;28;20025;-71
2022/01/22 06:23:32;;;;;;;12.07;1.80;;;9.10;99.90;;;;;;5064200;28;20103;-71
2022/01/22 06:26:00;;;;;;;12.52;1.75;;;9.10;99.90;;;;;;5070549;28;20028;-71
2022/01/22 06:28:29;;;;;;;11.18;2.33;;;9.10;99.90;;;;;;5070632;28;20070;-71
2022/01/22 06:30:57;;;;;;;8.95;1.67;;;9.10;99.90;;;;;;5059802;28;20045;-71
2022/01/22 06:33:23;;;;;;;8.15;2.08;;;9.10;99.90;;;;;;5063964;28;20021;-71
2022/01/22 06:35:49;;;;;;;7.68;1.25;;;9.10;99.90;;;;;;5066478;28;20059;-71
2022/01/22 06:38:15;;;;;;;13.45;2.13;;;9.10;99.90;;;;;;5056738;28;20055;-71
2022/01/22 06:43:06;;;;;;;7.15;1.85;;;9.00;99.90;;;;;;5066534;28;20021;-70
2022/01/22 06:45:32;;;;;;;10.20;1.70;;;9.00;99.90;;;;;;5064474;28;20056;-70
2022/01/22 06:47:58;;;;;;;10.73;1.40;;;9.00;99.90;;;;;;5058656;28;20084;-69
2022/01/22 06:50:24;;;;;;;13.48;1.60;;;9.00;99.90;;;;;;5064736;28;20489;-71
2022/01/22 06:52:55;;;;;;;9.43;1.73;;;9.00;99.90;;;;;;5050342;28;20021;-70
2022/01/22 06:55:40;;;;;;;4.80;1.30;;;9.00;99.90;;;;;;5062098;28;20021;-71
2022/01/22 06:58:05;;;;;;;9.40;1.30;;;9.00;99.90;;;;;;5057644;28;20112;-71
2022/01/22 07:00:31;;;;;;;6.85;1.55;;;9.00;99.90;;;;;;5070027;28;20099;-71
2022/01/22 07:02:57;;;;;;;9.77;1.30;;;8.90;99.90;;;;;;5068255;28;20458;-70
2022/01/22 07:05:22;;;;;;;8.38;1.40;;;8.90;99.90;;;;;;5064758;28;20101;-70
2022/01/22 07:07:48;;;;;;;11.85;2.50;;;8.90;99.90;;;;;;5060120;28;20064;-71
2022/01/22 07:10:17;;;;;;;4.82;1.05;;;8.90;99.90;;;;;;5069218;28;20551;-71
2022/01/22 07:12:42;;;;;;;11.85;1.52;;;8.90;99.90;;;;;;5038235;28;20044;-70
2022/01/22 07:15:08;;;;;;;6.63;1.17;;;9.00;99.90;;;;;;5065304;28;20017;-70
2022/01/22 07:17:36;;;;;;;3.42;1.00;;;9.00;99.90;;;;;;5059273;28;20029;-70
2022/01/22 07:20:13;;;;;;;9.85;1.60;;;9.00;99.90;;;;;;5049706;28;20020;-71
2022/01/22 07:22:53;;;;;;;12.68;1.80;;;8.90;99.90;;;;;;5035002;28;20374;-70
2022/01/22 07:25:19;;;;;;;9.48;1.60;;;9.00;99.90;;;;;;5062167;28;20024;-70
2022/01/22 07:27:46;;;;;;;15.00;2.78;;;9.00;99.90;;;;;;5059946;28;20029;-70
2022/01/22 07:30:13;;;;;;;9.35;1.88;;;8.90;99.90;;;;;;5051260;28;20025;-71
2022/01/22 07:32:42;;;;;;;8.10;1.60;;;9.00;99.90;;;;;;5055491;28;20036;-70
2022/01/22 07:35:09;;;;;;;6.93;1.45;;;9.00;99.90;;;;;;5064227;28;20108;-70
2022/01/22 07:37:36;;;;;;;8.10;1.40;;;8.90;99.90;;;;;;5062144;28;20037;-70
2022/01/22 07:40:04;;;;;;;4.38;1.40;;;8.90;99.90;;;;;;5036722;28;20025;-70
2022/01/22 07:42:30;;;;;;;8.70;1.63;;;8.90;99.90;;;;;;5069073;28;20062;-70
2022/01/22 07:44:55;;;;;;;4.68;1.15;;;8.90;99.90;;;;;;5056953;28;20107;-70
2022/01/22 07:47:21;;;;;;;6.03;1.30;;;9.00;99.90;;;;;;5061265;28;20358;-71
2022/01/22 07:49:47;;;;;;;10.05;1.58;;;8.90;99.90;;;;;;5058669;28;20090;-71
2022/01/22 07:52:12;;;;;;;10.88;1.80;;;8.90;99.90;;;;;;5053463;28;20108;-70
2022/01/22 07:54:38;;;;;;;9.63;2.03;;;9.00;99.90;;;;;;5066793;28;20040;-71
2022/01/22 07:57:04;;;;;;;5.00;1.38;;;9.00;99.90;;;;;;5059407;28;20031;-71
2022/01/22 07:59:31;;;;;;;9.98;1.77;;;9.00;99.90;;;;;;5060641;28;20098;-71
2022/01/22 08:01:57;;;;;;;7.97;2.00;;;9.00;99.90;;;;;;5063023;28;20367;-71
2022/01/22 08:04:24;;;;;;;7.53;1.90;;;9.00;99.90;;;;;;5061664;28;20047;-71
2022/01/22 08:06:51;;;;;;;9.45;2.20;;;9.00;99.90;;;;;;5054000;28;20108;-71
2022/01/22 08:09:17;;;;;;;8.95;2.10;;;9.00;99.90;;;;;;5055386;28;20056;-71
2022/01/22 08:11:42;;;;;;;6.32;1.85;;;9.10;99.90;;;;;;5057038;28;20076;-71
2022/01/22 08:14:09;;;;;;;7.13;1.95;;;9.10;99.90;;;;;;5056561;28;20032;-71
2022/01/22 08:16:35;;;;;;;8.25;1.90;;;9.10;99.90;;;;;;5068858;28;20033;-71
2022/01/22 08:19:01;;;;;;;8.30;2.00;;;9.20;99.90;;;;;;5060934;28;20056;-70
2022/01/22 08:21:27;;;;;;;16.83;2.95;;;9.10;99.90;;;;;;5060968;28;20048;-71
2022/01/22 08:23:52;;;;;;;10.23;2.47;;;9.10;99.90;;;;;;5056099;28;20018;-70
2022/01/22 08:26:22;;;;;;;10.10;1.83;;;9.10;99.90;;;;;;5049690;28;20460;-70
2022/01/22 08:28:54;;;;;;;10.82;2.30;;;9.10;99.90;;;;;;5056781;28;20035;-71
2022/01/22 08:36:47;;;;;;;12.07;2.30;;;9.20;99.90;;;;;;5051830;28;20032;-70
2022/01/22 08:39:16;;;;;;;8.10;1.80;;;9.20;99.90;;;;;;5051782;28;20096;-71
2022/01/22 08:41:42;;;;;;;6.95;1.70;;;9.20;99.90;;;;;;5052087;28;20025;-71
2022/01/22 08:44:09;;;;;;;6.00;1.63;;;9.30;99.90;;;;;;5067149;28;20033;-71
2022/01/22 08:46:35;;;;;;;8.15;2.10;;;9.30;99.90;;;;;;5042688;28;20477;-70
2022/01/22 08:49:01;;;;;;;16.38;3.08;;;9.30;99.90;;;;;;5052462;28;20057;-71
2022/01/22 08:51:26;;;;;;;11.50;3.53;;;9.40;99.90;;;;;;5051866;28;20041;-71
2022/01/22 08:53:52;;;;;;;11.75;3.25;;;9.40;99.90;;;;;;5051839;28;20099;-71
2022/01/22 08:56:18;;;;;;;12.35;2.50;;;9.50;99.90;;;;;;5051554;28;20032;-71
2022/01/22 08:58:44;;;;;;;10.00;2.60;;;9.50;99.90;;;;;;5054560;28;20109;-71
2022/01/22 09:01:11;;;;;;;9.75;2.45;;;9.50;99.90;;;;;;5072794;28;20111;-71
2022/01/22 09:03:37;;;;;;;9.45;2.15;;;9.60;99.90;;;;;;5051467;28;20025;-70
2022/01/22 09:06:05;;;;;;;10.85;2.72;;;9.60;99.90;;;;;;5055660;28;20049;-71
2022/01/22 09:08:31;;;;;;;10.82;1.80;;;9.60;99.90;;;;;;5055739;28;20465;-71
2022/01/22 09:10:57;;;;;;;12.25;2.10;;;9.70;99.90;;;;;;5054609;28;20103;-71
2022/01/22 09:13:24;;;;;;;9.40;2.00;;;9.70;99.90;;;;;;5055590;28;20459;-71
2022/01/22 09:15:53;;;;;;;10.48;2.13;;;9.80;99.90;;;;;;5055282;28;20052;-71
2022/01/22 09:18:19;;;;;;;5.90;1.67;;;9.80;99.90;;;;;;5070277;28;20025;-71
2022/01/22 09:21:01;;;;;;;9.50;2.15;;;9.80;99.90;;;;;;5063836;28;20036;-71
2022/01/22 09:23:29;;;;;;;11.63;2.20;;;9.80;99.90;;;;;;5037153;28;20563;-71
2022/01/22 09:25:55;;;;;;;6.45;2.00;;;9.90;99.90;;;;;;5054902;28;20025;-72
2022/01/22 09:28:21;;;;;;;8.95;2.53;;;9.90;99.90;;;;;;5054715;28;20033;-71
2022/01/22 09:30:47;;;;;;;8.02;2.40;;;9.90;99.90;;;;;;5054964;28;20037;-71
2022/01/22 09:33:14;;;;;;;12.90;2.55;;;9.90;99.90;;;;;;5057052;28;20458;-71
2022/01/22 09:35:40;;;;;;;8.50;2.58;;;10.00;99.90;;;;;;5074994;28;20111;-70
2022/01/22 09:38:05;;;;;;;10.18;2.30;;;10.00;99.90;;;;;;5073836;28;20027;-70
2022/01/22 09:40:32;;;;;;;8.90;2.10;;;10.00;99.90;;;;;;5064354;28;20028;-71
2022/01/22 09:42:59;;;;;;;5.72;1.80;;;10.00;99.90;;;;;;5056596;28;20390;-70
2022/01/22 09:45:27;;;;;;;5.47;1.95;;;10.00;99.90;;;;;;5069558;28;20170;-70
2022/01/22 09:47:53;;;;;;;6.20;2.05;;;10.10;99.90;;;;;;5056625;28;20182;-70
2022/01/22 09:50:21;;;;;;;7.18;2.00;;;10.10;99.90;;;;;;5073613;28;20039;-71
2022/01/22 09:52:49;;;;;;;7.32;2.40;;;10.10;99.90;;;;;;5074104;28;20106;-71
2022/01/22 09:55:15;;;;;;;6.32;1.92;;;10.20;99.90;;;;;;5056415;28;20588;-71
2022/01/22 09:57:41;;;;;;;10.95;2.10;;;10.30;99.90;;;;;;5068646;28;20096;-71
2022/01/22 10:00:09;;;;;;;8.55;1.92;;;10.30;99.90;;;;;;5053355;28;20485;-71
2022/01/22 10:02:49;;;;;;;7.85;2.17;;;10.40;99.90;;;;;;5055250;28;20043;-71
2022/01/22 10:05:29;;;;;;;11.77;2.05;;;10.40;99.90;;;;;;5054470;28;20471;-71
2022/01/22 10:08:19;;;;;;;7.82;2.00;;;10.50;99.90;;;;;;5035887;28;20066;-74
2022/01/22 10:10:46;;;;;;;12.35;3.22;;;10.50;99.90;;;;;;5054029;28;20147;-76
2022/01/22 10:13:12;;;;;;;3.95;1.50;;;10.50;99.90;;;;;;5057477;28;20031;-72
2022/01/22 10:15:39;;;;;;;4.65;1.60;;;10.50;99.90;;;;;;5074638;28;20033;-72
2022/01/22 10:18:05;;;;;;;10.00;2.30;;;10.50;99.90;;;;;;5074399;28;20401;-70
2022/01/22 10:20:38;;;;;;;9.27;2.20;;;10.50;99.90;;;;;;5073747;28;20542;-69
2022/01/22 10:23:15;;;;;;;8.23;2.20;;;10.50;99.90;;;;;;5072052;28;20036;-74
2022/01/22 10:25:47;;;;;;;5.38;2.08;;;10.50;99.90;;;;;;5058485;28;20029;-72
2022/01/22 10:28:23;;;;;;;12.57;2.15;;;10.50;99.90;;;;;;5055072;28;20032;-73
2022/01/22 10:31:08;;;;;;;6.63;2.25;;;10.40;99.90;;;;;;5053671;28;20032;-74
2022/01/22 10:33:34;;;;;;;11.02;2.42;;;10.40;99.90;;;;;;5055618;28;20159;-75
2022/01/22 10:36:09;;;;;;;4.45;2.08;;;10.40;99.90;;;;;;5071040;28;20020;-72
2022/01/22 10:38:43;;;;;;;10.13;2.10;;;10.40;99.90;;;;;;5073652;28;20025;-73
2022/01/22 10:41:09;;;;;;;11.05;2.67;;;10.40;99.90;;;;;;5042781;28;20036;-73
2022/01/22 10:43:41;;;;;;;11.82;2.50;;;10.40;99.90;;;;;;5053681;28;20033;-73
2022/01/22 10:48:57;;;;;;;9.70;2.50;;;10.40;99.90;;;;;;5066243;28;20522;-74
2022/01/22 10:51:25;;;;;;;10.05;2.83;;;10.40;99.90;;;;;;5034698;28;20375;-76
2022/01/22 10:54:02;;;;;;;8.73;2.17;;;10.40;99.90;;;;;;5060216;28;20041;-72
2022/01/22 10:56:29;;;;;;;4.85;2.45;;;10.40;99.90;;;;;;5073559;28;20033;-74
2022/01/22 10:59:10;;;;;;;10.55;2.70;;;10.30;99.90;;;;;;5066954;28;20171;-76
2022/01/22 11:01:55;;;;;;;9.23;2.30;;;10.30;99.90;;;;;;5067396;28;20035;-73
2022/01/22 11:04:27;;;;;;;9.57;2.90;;;10.40;99.90;;;;;;5054283;28;20116;-71
2022/01/22 11:06:59;;;;;;;7.57;2.30;;;10.40;99.90;;;;;;5053116;28;20029;-76
2022/01/22 11:09:29;;;;;;;9.38;2.90;;;10.40;99.90;;;;;;5067052;28;20028;-72
2022/01/22 11:11:55;;;;;;;4.82;2.00;;;10.40;99.90;;;;;;5072955;28;20409;-73
2022/01/22 11:14:22;;;;;;;8.40;2.58;;;10.40;99.90;;;;;;5071212;28;20120;-72
2022/01/22 11:16:49;;;;;;;8.95;3.38;;;10.40;99.90;;;;;;5072994;28;20099;-71
2022/01/22 11:19:20;;;;;;;13.40;3.10;;;10.50;99.90;;;;;;5058521;28;20021;-72
2022/01/22 11:21:52;;;;;;;9.15;2.67;;;10.40;99.90;;;;;;5069501;28;20108;-73
2022/01/22 11:24:23;;;;;;;12.77;3.67;;;10.40;99.90;;;;;;5062623;28;20035;-69
2022/01/22 11:26:54;;;;;;;8.05;3.00;;;10.50;99.90;;;;;;5073263;28;20037;-73
2022/01/22 11:29:24;;;;;;;12.77;3.50;;;10.40;99.90;;;;;;5057233;28;20112;-74
2022/01/22 11:31:52;;;;;;;11.63;3.75;;;10.40;99.90;;;;;;5053286;28;20048;-72
2022/01/22 11:34:20;;;;;;;10.25;2.90;;;10.40;99.90;;;;;;5052691;28;20374;-73
2022/01/22 11:37:11;;;;;;;8.63;2.97;;;10.40;99.90;;;;;;5053536;28;20091;-73
2022/01/22 11:39:36;;;;;;;7.97;3.10;;;10.40;99.90;;;;;;5052628;28;20025;-71
2022/01/22 11:42:04;;;;;;;9.07;2.70;;;10.50;99.90;;;;;;5053763;28;20025;-72
2022/01/22 11:44:50;;;;;;;12.63;3.22;;;10.50;99.90;;;;;;5052690;28;20020;-75
2022/01/22 11:47:20;;;;;;;10.35;3.05;;;10.50;99.90;;;;;;5053513;28;20076;-73
2022/01/22 11:50:11;;;;;;;13.68;3.25;;;10.60;99.90;;;;;;5053647;28;20032;-75
2022/01/22 11:52:41;;;;;;;10.43;3.00;;;10.50;99.90;;;;;;5052661;28;20463;-72
2022/01/22 11:55:16;;;;;;;11.45;3.45;;;10.40;99.90;;;;;;5064702;28;20359;-74
2022/01/22 11:57:44;;;;;;;8.57;3.30;;;10.40;99.90;;;;;;5072626;28;20025;-72
2022/01/22 12:00:24;;;;;;;11.18;3.42;;;10.50;99.90;;;;;;5053298;28;20028;-71
2022/01/22 12:03:08;;;;;;;10.63;3.13;;;10.50;99.90;;;;;;5052759;28;20405;-72
2022/01/22 12:05:34;;;;;;;10.35;3.67;;;10.60;99.90;;;;;;5051515;28;20028;-74
2022/01/22 12:08:01;;;;;;;11.77;2.95;;;10.60;99.90;;;;;;5054641;28;20028;-72
2022/01/22 12:10:38;;;;;;;6.95;3.10;;;10.70;99.90;;;;;;5052152;28;20028;-73
2022/01/22 12:16:14;;;;;;;11.70;3.72;;;10.60;99.90;;;;;;5070686;28;20097;-76
2022/01/22 12:18:49;;;;;;;10.30;3.20;;;10.60;99.90;;;;;;5043976;28;20051;-70
2022/01/22 12:21:36;;;;;;;10.02;3.80;;;10.60;99.90;;;;;;5037563;28;20033;-71
2022/01/22 12:24:08;;;;;;;9.20;4.03;;;10.60;99.90;;;;;;5072689;28;20031;-76
2022/01/22 12:26:40;;;;;;;9.10;2.90;;;10.60;99.90;;;;;;5067720;28;20063;-75
2022/01/22 12:29:37;;;;;;;11.73;3.58;;;10.70;99.90;;;;;;5052670;28;20044;-70
2022/01/22 12:32:06;;;;;;;9.20;3.40;;;10.70;99.90;;;;;;5065158;28;20048;-74
2022/01/22 12:34:53;;;;;;;13.18;3.80;;;10.60;99.90;;;;;;5057968;28;20367;-75
2022/01/22 12:37:21;;;;;;;8.20;2.97;;;10.60;99.90;;;;;;5062386;28;20490;-70
2022/01/22 12:39:51;;;;;;;11.73;3.10;;;10.60;99.90;;;;;;5055287;28;20047;-72
2022/01/22 12:42:32;;;;;;;11.48;3.83;;;10.60;99.90;;;;;;5056883;28;20025;-71
2022/01/22 12:45:00;;;;;;;9.25;3.85;;;10.60;99.90;;;;;;5055977;28;20036;-69
2022/01/22 12:47:27;;;;;;;12.43;3.63;;;10.50;99.90;;;;;;5061198;28;20068;-73
2022/01/22 12:50:01;;;;;;;8.43;3.28;;;10.50;99.90;;;;;;5056348;28;20025;-69
2022/01/22 12:52:27;;;;;;;13.50;4.53;;;10.40;99.90;;;;;;5049864;28;20044;-71
2022/01/22 12:54:57;;;;;;;9.38;3.42;;;10.40;99.90;;;;;;5075901;28;20032;-71
2022/01/22 12:57:25;;;;;;;12.27;4.25;;;10.40;99.90;;;;;;5064223;28;20071;-69
2022/01/22 13:00:09;;;;;;;11.30;3.40;;;10.40;99.90;;;;;;5055371;28;20348;-73
2022/01/22 13:02:38;;;;;;;8.85;4.05;;;10.40;99.90;;;;;;5048551;28;20043;-70
2022/01/22 13:05:04;;;;;;;10.32;4.10;;;10.30;99.90;;;;;;5075774;28;20029;-73
2022/01/22 13:07:59;;;;;;;9.88;3.33;;;10.30;99.90;;;;;;5062955;28;20137;-75
2022/01/22 13:10:32;;;;;;;10.02;3.40;;;10.30;99.90;;;;;;5040189;28;20083;-74
2022/01/22 13:12:59;;;;;;;9.23;3.33;;;10.30;99.90;;;;;;5068250;28;20041;-73
2022/01/22 13:15:27;;;;;;;14.00;3.78;;;10.30;99.90;;;;;;5074943;28;20029;-72
2022/01/22 13:17:58;;;;;;;14.98;3.53;;;10.20;99.90;;;;;;5061465;28;20025;-72
2022/01/22 13:20:26;;;;;;;16.23;4.03;;;10.10;99.90;;;;;;5054864;28;20025;-71
2022/01/22 13:22:53;;;;;;;9.00;3.60;;;10.00;99.90;;;;;;5054905;28;20277;-71
2022/01/22 13:25:20;;;;;;;15.02;4.13;;;10.00;99.90;;;;;;5054972;28;20032;-70
2022/01/22 13:28:04;;;;;;;12.63;4.25;;;10.00;99.90;;;;;;5052961;28;20029;-74
2022/01/22 13:30:37;;;;;;;9.43;3.92;;;10.00;99.90;;;;;;5073546;28;20043;-72
2022/01/22 13:33:43;;;;;;;17.90;4.20;;;9.90;99.90;;;;;;5038522;28;20039;-71
2022/01/22 13:49:33;;;;;;;10.98;4.15;;;9.90;99.90;;;;;;5074936;28;20062;-76
2022/01/22 13:52:02;;;;;;;15.70;4.15;;;9.90;99.90;;;;;;5066635;28;20037;-74
2022/01/22 13:54:36;;;;;;;9.73;4.05;;;9.80;99.90;;;;;;5061500;28;20371;-72
2022/01/22 13:57:16;;;;;;;9.52;4.72;;;9.90;99.90;;;;;;5065070;28;20033;-74
2022/01/22 13:59:56;;;;;;;12.98;5.13;;;9.80;99.90;;;;;;5055449;28;20021;-73
2022/01/22 14:04:59;;;;;;;14.45;5.05;;;9.80;99.90;;;;;;5061334;28;20480;-70
2022/01/22 14:07:36;;;;;;;13.93;4.80;;;9.70;99.90;;;;;;5060126;28;20115;-75
2022/01/22 14:10:17;;;;;;;15.88;5.35;;;9.80;99.90;;;;;;5068142;28;20078;-74
2022/01/22 14:12:46;;;;;;;12.90;4.70;;;9.70;99.90;;;;;;5053675;28;20402;-74
2022/01/22 14:15:16;;;;;;;14.77;4.80;;;9.80;99.90;;;;;;5065534;28;20024;-70
2022/01/22 14:17:58;;;;;;;11.70;4.72;;;9.80;99.90;;;;;;5055440;28;20028;-74
2022/01/22 14:20:27;;;;;;;13.57;4.70;;;9.80;99.90;;;;;;5054090;28;20078;-73
2022/01/22 14:23:01;;;;;;;14.50;4.75;;;9.80;99.90;;;;;;5054034;28;20033;-73
2022/01/22 14:25:28;;;;;;;12.70;4.80;;;9.90;99.90;;;;;;5054022;28;20025;-73
2022/01/22 14:28:07;;;;;;;15.02;4.80;;;9.80;99.90;;;;;;5053861;28;20029;-73
2022/01/22 14:30:41;;;;;;;15.32;4.95;;;9.90;99.90;;;;;;5054814;28;20496;-73
2022/01/22 14:33:07;;;;;;;13.45;5.18;;;9.90;99.90;;;;;;5055530;28;20028;-71
2022/01/22 14:35:35;;;;;;;11.52;4.30;;;9.90;99.90;;;;;;5062268;28;20052;-71
2022/01/22 14:38:19;;;;;;;13.65;4.82;;;9.90;99.90;;;;;;5073608;28;20052;-71
2022/01/22 14:44:01;;;;;;;8.93;4.32;;;9.90;99.90;;;;;;5059459;28;20098;-72
2022/01/22 14:46:39;;;;;;;12.52;4.35;;;9.90;99.90;;;;;;5055187;28;20439;-70
2022/01/22 14:49:04;;;;;;;11.02;4.55;;;9.90;99.90;;;;;;5059510;28;20044;-75
2022/01/22 14:51:30;;;;;;;16.83;4.88;;;9.90;99.90;;;;;;5053570;28;20437;-74
2022/01/22 14:53:55;;;;;;;13.48;4.80;;;9.80;99.90;;;;;;5036000;28;20063;-71
2022/01/22 14:56:21;;;;;;;14.30;4.90;;;9.80;99.90;;;;;;5063659;28;20028;-76
2022/01/22 14:58:47;;;;;;;11.73;4.65;;;9.80;99.90;;;;;;5067455;28;20025;-73
2022/01/22 15:01:12;;;;;;;13.90;5.38;;;9.80;99.90;;;;;;5053169;28;20029;-73
2022/01/22 15:03:38;;;;;;;15.30;4.90;;;9.80;99.90;;;;;;5052610;28;20051;-74